sensor_id;sensor_type;location;lat;lon;timestamp;P1;durP1;ratioP1;P2;durP2;ratioP2
74788;SDS011;63313;48.258;12.518;2023-07-20T00:03:57;7.789999999999999;;;3.4899999999999998;;
74788;SDS011;63313;48.258;12.518;2023-07-20T00:09:24;10.959999999999999;;;3.55;;
74788;SDS011;63313;48.258;12.518;2023-07-20T00:14:51;6.42;;;3.3300000000000005;;
74788;SDS011;63313;48.258;12.518;2023-07-20T00:20:19;7.33;;;3.4799999999999995;;
74788;SDS011;63313;48.258;12.518;2023-07-20T00:25:46;5.27;;;3.47;;
74788;SDS011;63313;48.258;12.518;2023-07-20T00:31:13;5.23;;;3.6400000000000006;;
74788;SDS011;63313;48.258;12.518;2023-07-20T00:36:41;6.669999999999999;;;4.08;;
74788;SDS011;63313;48.258;12.518;2023-07-20T00:42:08;9.39;;;3.7699999999999996;;
74788;SDS011;63313;48.258;12.518;2023-07-20T00:47:35;8.739999999999998;;;3.9300000000000006;;
74788;SDS011;63313;48.258;12.518;2023-07-20T00:53:03;8.290000000000001;;;4.38;;
74788;SDS011;63313;48.258;12.518;2023-07-20T00:58:31;7.42;;;4.38;;
74788;SDS011;63313;48.258;12.518;2023-07-20T01:03:58;6.1899999999999995;;;4.340000000000001;;
74788;SDS011;63313;48.258;12.518;2023-07-20T01:09:26;6.13;;;4.68;;
74788;SDS011;63313;48.258;12.518;2023-07-20T01:14:55;7.7299999999999995;;;4.85;;
74788;SDS011;63313;48.258;12.518;2023-07-20T01:20:22;6.45;;;4.5200000000000005;;
74788;SDS011;63313;48.258;12.518;2023-07-20T01:25:58;8.23;;;5.3100000000000005;;
74788;SDS011;63313;48.258;12.518;2023-07-20T01:31:29;8.620000000000001;;;5.260000000000001;;
74788;SDS011;63313;48.258;12.518;2023-07-20T01:36:57;12.8;;;5.3100000000000005;;
74788;SDS011;63313;48.258;12.518;2023-07-20T01:42:24;13.709999999999999;;;4.76;;
74788;SDS011;63313;48.258;12.518;2023-07-20T01:47:51;8.929999999999998;;;4.799999999999999;;
74788;SDS011;63313;48.258;12.518;2023-07-20T01:53:19;5.79;;;4.4799999999999995;;
74788;SDS011;63313;48.258;12.518;2023-07-20T01:58:46;8.430000000000001;;;4.54;;
74788;SDS011;63313;48.258;12.518;2023-07-20T02:04:13;6.9;;;4.460000000000001;;
74788;SDS011;63313;48.258;12.518;2023-07-20T02:09:41;6.049999999999999;;;4.52;;
74788;SDS011;63313;48.258;12.518;2023-07-20T02:15:08;16.03;;;4.720000000000001;;
74788;SDS011;63313;48.258;12.518;2023-07-20T02:20:35;8.010000000000002;;;4.859999999999999;;
74788;SDS011;63313;48.258;12.518;2023-07-20T02:26:03;8.11;;;4.92;;
74788;SDS011;63313;48.258;12.518;2023-07-20T02:31:30;8.600000000000001;;;4.819999999999999;;
74788;SDS011;63313;48.258;12.518;2023-07-20T02:36:57;8.16;;;4.5600000000000005;;
74788;SDS011;63313;48.258;12.518;2023-07-20T02:42:24;9.59;;;4.76;;
74788;SDS011;63313;48.258;12.518;2023-07-20T02:47:51;7.87;;;4.69;;
74788;SDS011;63313;48.258;12.518;2023-07-20T02:53:18;8.82;;;4.35;;
74788;SDS011;63313;48.258;12.518;2023-07-20T02:58:45;9.1;;;4.72;;
74788;SDS011;63313;48.258;12.518;2023-07-20T03:04:12;7.0;;;4.58;;
74788;SDS011;63313;48.258;12.518;2023-07-20T03:09:39;7.209999999999999;;;4.790000000000001;;
74788;SDS011;63313;48.258;12.518;2023-07-20T03:15:07;9.209999999999999;;;4.290000000000001;;
74788;SDS011;63313;48.258;12.518;2023-07-20T03:20:35;14.35;;;5.000000000000001;;
74788;SDS011;63313;48.258;12.518;2023-07-20T03:26:02;8.729999999999999;;;5.02;;
74788;SDS011;63313;48.258;12.518;2023-07-20T03:31:29;11.56;;;4.9;;
74788;SDS011;63313;48.258;12.518;2023-07-20T03:36:56;7.68;;;4.12;;
74788;SDS011;63313;48.258;12.518;2023-07-20T03:42:23;8.17;;;4.529999999999999;;
74788;SDS011;63313;48.258;12.518;2023-07-20T03:47:50;8.41;;;4.88;;
74788;SDS011;63313;48.258;12.518;2023-07-20T03:53:17;9.59;;;4.7299999999999995;;
74788;SDS011;63313;48.258;12.518;2023-07-20T03:58:45;13.38;;;4.53;;
74788;SDS011;63313;48.258;12.518;2023-07-20T04:04:13;7.8199999999999985;;;5.040000000000001;;
74788;SDS011;63313;48.258;12.518;2023-07-20T04:09:40;8.01;;;4.529999999999999;;
74788;SDS011;63313;48.258;12.518;2023-07-20T04:15:07;11.620000000000001;;;4.85;;
74788;SDS011;63313;48.258;12.518;2023-07-20T04:20:35;10.75;;;5.45;;
74788;SDS011;63313;48.258;12.518;2023-07-20T04:26:02;7.17;;;4.159999999999999;;
74788;SDS011;63313;48.258;12.518;2023-07-20T04:31:29;10.000000000000002;;;4.180000000000001;;
74788;SDS011;63313;48.258;12.518;2023-07-20T04:36:56;7.090000000000001;;;4.529999999999999;;
74788;SDS011;63313;48.258;12.518;2023-07-20T04:42:23;9.15;;;4.49;;
74788;SDS011;63313;48.258;12.518;2023-07-20T04:47:50;9.66;;;4.4399999999999995;;
74788;SDS011;63313;48.258;12.518;2023-07-20T04:53:17;9.45;;;5.209999999999999;;
74788;SDS011;63313;48.258;12.518;2023-07-20T04:58:44;6.51;;;3.96;;
74788;SDS011;63313;48.258;12.518;2023-07-20T05:04:12;6.640000000000001;;;4.409999999999999;;
74788;SDS011;63313;48.258;12.518;2023-07-20T05:09:39;8.48;;;4.69;;
74788;SDS011;63313;48.258;12.518;2023-07-20T05:15:06;6.540000000000001;;;3.7199999999999998;;
74788;SDS011;63313;48.258;12.518;2023-07-20T05:20:34;8.2;;;3.63;;
74788;SDS011;63313;48.258;12.518;2023-07-20T05:26:01;7.31;;;3.2;;
74788;SDS011;63313;48.258;12.518;2023-07-20T05:31:28;8.0;;;3.7600000000000002;;
74788;SDS011;63313;48.258;12.518;2023-07-20T05:36:55;7.970000000000001;;;3.53;;
74788;SDS011;63313;48.258;12.518;2023-07-20T05:42:22;8.14;;;3.19;;
74788;SDS011;63313;48.258;12.518;2023-07-20T05:47:49;8.72;;;3.1599999999999993;;
74788;SDS011;63313;48.258;12.518;2023-07-20T05:53:16;5.9799999999999995;;;3.08;;
74788;SDS011;63313;48.258;12.518;2023-07-20T05:58:43;11.82;;;3.12;;
74788;SDS011;63313;48.258;12.518;2023-07-20T06:04:10;5.95;;;2.7600000000000002;;
74788;SDS011;63313;48.258;12.518;2023-07-20T06:09:37;8.780000000000001;;;2.5700000000000003;;
74788;SDS011;63313;48.258;12.518;2023-07-20T06:15:05;13.87;;;3.04;;
74788;SDS011;63313;48.258;12.518;2023-07-20T06:20:32;6.720000000000001;;;2.6100000000000003;;
74788;SDS011;63313;48.258;12.518;2023-07-20T06:25:59;4.25;;;1.8800000000000001;;
74788;SDS011;63313;48.258;12.518;2023-07-20T06:31:26;12.18;;;2.85;;
74788;SDS011;63313;48.258;12.518;2023-07-20T06:36:53;7.3;;;2.6100000000000003;;
74788;SDS011;63313;48.258;12.518;2023-07-20T06:42:20;4.0600000000000005;;;2.2;;
74788;SDS011;63313;48.258;12.518;2023-07-20T06:47:47;5.290000000000001;;;2.15;;
74788;SDS011;63313;48.258;12.518;2023-07-20T06:53:15;4.38;;;1.85;;
74788;SDS011;63313;48.258;12.518;2023-07-20T06:58:42;8.31;;;2.62;;
74788;SDS011;63313;48.258;12.518;2023-07-20T07:04:09;4.85;;;1.9200000000000004;;
74788;SDS011;63313;48.258;12.518;2023-07-20T07:09:36;8.88;;;2.15;;
74788;SDS011;63313;48.258;12.518;2023-07-20T07:15:04;3.7399999999999998;;;1.97;;
74788;SDS011;63313;48.258;12.518;2023-07-20T07:20:31;3.03;;;1.9700000000000002;;
74788;SDS011;63313;48.258;12.518;2023-07-20T07:25:58;3.6300000000000003;;;1.7;;
74788;SDS011;63313;48.258;12.518;2023-07-20T07:31:25;5.3100000000000005;;;2.49;;
74788;SDS011;63313;48.258;12.518;2023-07-20T07:36:52;4.26;;;2.28;;
74788;SDS011;63313;48.258;12.518;2023-07-20T07:42:19;4.15;;;2.04;;
74788;SDS011;63313;48.258;12.518;2023-07-20T07:47:46;2.59;;;2.0300000000000002;;
74788;SDS011;63313;48.258;12.518;2023-07-20T07:53:13;5.249999999999999;;;1.95;;
74788;SDS011;63313;48.258;12.518;2023-07-20T07:58:40;5.790000000000001;;;2.5500000000000003;;
74788;SDS011;63313;48.258;12.518;2023-07-20T08:04:08;4.709999999999999;;;2.0800000000000005;;
74788;SDS011;63313;48.258;12.518;2023-07-20T08:09:35;3.47;;;2.0800000000000005;;
74788;SDS011;63313;48.258;12.518;2023-07-20T08:15:02;3.6399999999999997;;;1.89;;
74788;SDS011;63313;48.258;12.518;2023-07-20T08:20:29;3.8299999999999996;;;1.97;;
74788;SDS011;63313;48.258;12.518;2023-07-20T08:25:56;3.25;;;2.0799999999999996;;
74788;SDS011;63313;48.258;12.518;2023-07-20T08:31:23;2.52;;;1.6600000000000001;;
74788;SDS011;63313;48.258;12.518;2023-07-20T08:36:50;3.9400000000000004;;;2.0800000000000005;;
74788;SDS011;63313;48.258;12.518;2023-07-20T08:42:18;3.25;;;1.67;;
74788;SDS011;63313;48.258;12.518;2023-07-20T08:47:45;3.5;;;2.1100000000000003;;
74788;SDS011;63313;48.258;12.518;2023-07-20T08:53:12;1.9600000000000002;;;1.7399999999999998;;
74788;SDS011;63313;48.258;12.518;2023-07-20T08:58:39;2.6;;;1.8999999999999997;;
74788;SDS011;63313;48.258;12.518;2023-07-20T09:04:07;4.9399999999999995;;;1.78;;
74788;SDS011;63313;48.258;12.518;2023-07-20T09:09:39;2.7899999999999996;;;2.14;;
74788;SDS011;63313;48.258;12.518;2023-07-20T09:15:07;4.96;;;2.24;;
74788;SDS011;63313;48.258;12.518;2023-07-20T09:20:34;1.8800000000000001;;;1.6199999999999999;;
74788;SDS011;63313;48.258;12.518;2023-07-20T09:26:09;2.87;;;1.89;;
74788;SDS011;63313;48.258;12.518;2023-07-20T09:31:36;4.4399999999999995;;;1.67;;
74788;SDS011;63313;48.258;12.518;2023-07-20T09:37:04;2.92;;;1.8800000000000001;;
74788;SDS011;63313;48.258;12.518;2023-07-20T09:42:31;4.14;;;1.6300000000000001;;
74788;SDS011;63313;48.258;12.518;2023-07-20T09:48:03;1.9799999999999998;;;1.44;;
74788;SDS011;63313;48.258;12.518;2023-07-20T09:53:30;2.25;;;1.51;;
74788;SDS011;63313;48.258;12.518;2023-07-20T09:58:59;4.17;;;1.77;;
74788;SDS011;63313;48.258;12.518;2023-07-20T10:04:26;2.6599999999999997;;;1.6199999999999999;;
74788;SDS011;63313;48.258;12.518;2023-07-20T10:09:53;2.2199999999999998;;;1.3299999999999998;;
74788;SDS011;63313;48.258;12.518;2023-07-20T10:15:24;1.83;;;1.64;;
74788;SDS011;63313;48.258;12.518;2023-07-20T10:20:54;3.3900000000000006;;;1.4300000000000002;;
74788;SDS011;63313;48.258;12.518;2023-07-20T10:26:21;2.13;;;1.46;;
74788;SDS011;63313;48.258;12.518;2023-07-20T10:31:48;2.4699999999999998;;;1.89;;
74788;SDS011;63313;48.258;12.518;2023-07-20T10:37:33;1.59;;;1.3900000000000001;;
74788;SDS011;63313;48.258;12.518;2023-07-20T10:43:12;2.1900000000000004;;;1.7399999999999998;;
74788;SDS011;63313;48.258;12.518;2023-07-20T10:48:59;2.33;;;1.6600000000000001;;
74788;SDS011;63313;48.258;12.518;2023-07-20T10:54:34;2.29;;;1.6199999999999999;;
74788;SDS011;63313;48.258;12.518;2023-07-20T11:00:09;2.4400000000000004;;;1.47;;
74788;SDS011;63313;48.258;12.518;2023-07-20T11:05:37;1.9099999999999997;;;1.61;;
74788;SDS011;63313;48.258;12.518;2023-07-20T11:11:20;2.42;;;1.64;;
74788;SDS011;63313;48.258;12.518;2023-07-20T11:16:48;2.29;;;1.67;;
74788;SDS011;63313;48.258;12.518;2023-07-20T11:22:16;5.21;;;1.5299999999999998;;
74788;SDS011;63313;48.258;12.518;2023-07-20T11:27:44;2.04;;;1.7;;
74788;SDS011;63313;48.258;12.518;2023-07-20T11:33:11;3.6;;;1.7600000000000002;;
74788;SDS011;63313;48.258;12.518;2023-07-20T11:38:38;4.7;;;1.4899999999999998;;
74788;SDS011;63313;48.258;12.518;2023-07-20T11:44:06;2.1700000000000004;;;1.46;;
74788;SDS011;63313;48.258;12.518;2023-07-20T11:49:34;1.44;;;1.3000000000000003;;
74788;SDS011;63313;48.258;12.518;2023-07-20T11:55:02;3.2399999999999998;;;1.33;;
74788;SDS011;63313;48.258;12.518;2023-07-20T12:00:30;4.909999999999999;;;1.6;;
74788;SDS011;63313;48.258;12.518;2023-07-20T12:05:57;2.5;;;1.43;;
74788;SDS011;63313;48.258;12.518;2023-07-20T12:11:33;3.1399999999999997;;;1.7;;
74788;SDS011;63313;48.258;12.518;2023-07-20T12:17:00;1.95;;;1.6599999999999997;;
74788;SDS011;63313;48.258;12.518;2023-07-20T12:22:28;3.2600000000000002;;;1.77;;
74788;SDS011;63313;48.258;12.518;2023-07-20T12:27:55;3.6700000000000004;;;1.5899999999999999;;
74788;SDS011;63313;48.258;12.518;2023-07-20T12:33:22;2.83;;;1.4;;
74788;SDS011;63313;48.258;12.518;2023-07-20T12:38:49;6.859999999999999;;;1.89;;
74788;SDS011;63313;48.258;12.518;2023-07-20T12:44:16;2.78;;;1.75;;
74788;SDS011;63313;48.258;12.518;2023-07-20T12:49:43;6.2;;;1.8799999999999997;;
74788;SDS011;63313;48.258;12.518;2023-07-20T12:55:10;3.38;;;2.0799999999999996;;
74788;SDS011;63313;48.258;12.518;2023-07-20T13:00:37;5.81;;;1.78;;
74788;SDS011;63313;48.258;12.518;2023-07-20T13:06:05;3.85;;;1.5900000000000003;;
74788;SDS011;63313;48.258;12.518;2023-07-20T13:11:32;4.26;;;1.7400000000000002;;
74788;SDS011;63313;48.258;12.518;2023-07-20T13:16:59;3.34;;;1.58;;
74788;SDS011;63313;48.258;12.518;2023-07-20T13:22:26;3.19;;;1.85;;
74788;SDS011;63313;48.258;12.518;2023-07-20T13:27:53;3.2099999999999995;;;1.8400000000000003;;
74788;SDS011;63313;48.258;12.518;2023-07-20T13:33:20;7.4799999999999995;;;1.6099999999999999;;
74788;SDS011;63313;48.258;12.518;2023-07-20T13:38:47;4.0;;;1.7599999999999998;;
74788;SDS011;63313;48.258;12.518;2023-07-20T13:44:14;2.19;;;1.5499999999999998;;
74788;SDS011;63313;48.258;12.518;2023-07-20T13:49:42;2.08;;;1.6599999999999997;;
74788;SDS011;63313;48.258;12.518;2023-07-20T13:55:09;1.9899999999999998;;;1.55;;
74788;SDS011;63313;48.258;12.518;2023-07-20T14:00:37;2.2700000000000005;;;1.6800000000000002;;
74788;SDS011;63313;48.258;12.518;2023-07-20T14:06:04;2.75;;;1.46;;
74788;SDS011;63313;48.258;12.518;2023-07-20T14:11:31;2.4;;;1.7100000000000002;;
74788;SDS011;63313;48.258;12.518;2023-07-20T14:16:58;2.2399999999999998;;;1.65;;
74788;SDS011;63313;48.258;12.518;2023-07-20T14:22:25;4.45;;;1.6;;
74788;SDS011;63313;48.258;12.518;2023-07-20T14:27:52;2.68;;;1.6600000000000001;;
74788;SDS011;63313;48.258;12.518;2023-07-20T14:33:19;4.72;;;1.7600000000000002;;
74788;SDS011;63313;48.258;12.518;2023-07-20T14:38:46;5.5;;;1.48;;
74788;SDS011;63313;48.258;12.518;2023-07-20T14:44:13;2.55;;;1.7400000000000002;;
74788;SDS011;63313;48.258;12.518;2023-07-20T14:49:41;5.050000000000001;;;1.65;;
74788;SDS011;63313;48.258;12.518;2023-07-20T14:55:08;1.95;;;1.58;;
74788;SDS011;63313;48.258;12.518;2023-07-20T15:00:35;4.279999999999999;;;2.3499999999999996;;
74788;SDS011;63313;48.258;12.518;2023-07-20T15:06:02;3.63;;;1.5699999999999998;;
74788;SDS011;63313;48.258;12.518;2023-07-20T15:11:30;4.21;;;1.6600000000000001;;
74788;SDS011;63313;48.258;12.518;2023-07-20T15:16:57;2.84;;;1.8699999999999997;;
74788;SDS011;63313;48.258;12.518;2023-07-20T15:22:24;2.6000000000000005;;;1.75;;
74788;SDS011;63313;48.258;12.518;2023-07-20T15:27:51;2.84;;;1.49;;
74788;SDS011;63313;48.258;12.518;2023-07-20T15:33:18;6.209999999999999;;;1.69;;
74788;SDS011;63313;48.258;12.518;2023-07-20T15:38:45;2.38;;;1.4300000000000002;;
74788;SDS011;63313;48.258;12.518;2023-07-20T15:44:12;2.32;;;1.6800000000000002;;
74788;SDS011;63313;48.258;12.518;2023-07-20T15:49:40;4.71;;;1.8199999999999996;;
74788;SDS011;63313;48.258;12.518;2023-07-20T15:55:07;3.1;;;1.5999999999999999;;
74788;SDS011;63313;48.258;12.518;2023-07-20T16:00:34;2.8500000000000005;;;1.4300000000000002;;
74788;SDS011;63313;48.258;12.518;2023-07-20T16:06:02;4.0;;;1.83;;
74788;SDS011;63313;48.258;12.518;2023-07-20T16:11:29;6.63;;;1.6300000000000001;;
74788;SDS011;63313;48.258;12.518;2023-07-20T16:16:56;1.86;;;1.46;;
74788;SDS011;63313;48.258;12.518;2023-07-20T16:22:23;2.02;;;1.44;;
74788;SDS011;63313;48.258;12.518;2023-07-20T16:27:50;2.16;;;1.5299999999999998;;
74788;SDS011;63313;48.258;12.518;2023-07-20T16:33:17;1.98;;;1.8800000000000001;;
74788;SDS011;63313;48.258;12.518;2023-07-20T16:38:44;4.449999999999999;;;1.73;;
74788;SDS011;63313;48.258;12.518;2023-07-20T16:44:12;3.2600000000000007;;;1.9299999999999997;;
74788;SDS011;63313;48.258;12.518;2023-07-20T16:49:39;3.4800000000000004;;;1.52;;
74788;SDS011;63313;48.258;12.518;2023-07-20T16:55:06;2.29;;;1.5;;
74788;SDS011;63313;48.258;12.518;2023-07-20T17:00:33;4.71;;;1.7399999999999998;;
74788;SDS011;63313;48.258;12.518;2023-07-20T17:06:02;3.34;;;1.8700000000000003;;
74788;SDS011;63313;48.258;12.518;2023-07-20T17:11:29;2.35;;;1.4300000000000002;;
74788;SDS011;63313;48.258;12.518;2023-07-20T17:16:57;2.57;;;1.8799999999999997;;
74788;SDS011;63313;48.258;12.518;2023-07-20T17:22:24;1.67;;;1.53;;
74788;SDS011;63313;48.258;12.518;2023-07-20T17:27:51;1.56;;;1.3900000000000001;;
74788;SDS011;63313;48.258;12.518;2023-07-20T17:33:18;4.1899999999999995;;;1.8099999999999998;;
74788;SDS011;63313;48.258;12.518;2023-07-20T17:38:45;2.9899999999999998;;;1.5699999999999998;;
74788;SDS011;63313;48.258;12.518;2023-07-20T17:44:12;4.970000000000001;;;3.15;;
74788;SDS011;63313;48.258;12.518;2023-07-20T17:49:39;3.9499999999999993;;;1.72;;
74788;SDS011;63313;48.258;12.518;2023-07-20T17:55:07;10.1;;;1.9;;
74788;SDS011;63313;48.258;12.518;2023-07-20T18:00:34;3.4800000000000004;;;1.52;;
74788;SDS011;63313;48.258;12.518;2023-07-20T18:06:05;3.81;;;1.97;;
74788;SDS011;63313;48.258;12.518;2023-07-20T18:11:32;2.88;;;1.6099999999999999;;
74788;SDS011;63313;48.258;12.518;2023-07-20T18:16:59;2.5200000000000005;;;1.46;;
74788;SDS011;63313;48.258;12.518;2023-07-20T18:22:26;4.95;;;1.9499999999999997;;
74788;SDS011;63313;48.258;12.518;2023-07-20T18:27:53;8.15;;;1.6199999999999999;;
74788;SDS011;63313;48.258;12.518;2023-07-20T18:33:20;6.890000000000001;;;1.75;;
74788;SDS011;63313;48.258;12.518;2023-07-20T18:38:48;1.86;;;1.67;;
74788;SDS011;63313;48.258;12.518;2023-07-20T18:44:15;2.76;;;1.3;;
74788;SDS011;63313;48.258;12.518;2023-07-20T18:49:42;3.4200000000000004;;;1.6199999999999999;;
74788;SDS011;63313;48.258;12.518;2023-07-20T18:55:09;2.0200000000000005;;;1.8399999999999999;;
74788;SDS011;63313;48.258;12.518;2023-07-20T19:00:36;7.75;;;1.9199999999999995;;
74788;SDS011;63313;48.258;12.518;2023-07-20T19:06:03;2.75;;;1.7100000000000002;;
74788;SDS011;63313;48.258;12.518;2023-07-20T19:11:31;3.650000000000001;;;2.0700000000000003;;
74788;SDS011;63313;48.258;12.518;2023-07-20T19:16:58;7.08;;;2.0999999999999996;;
74788;SDS011;63313;48.258;12.518;2023-07-20T19:22:25;7.82;;;2.3299999999999996;;
74788;SDS011;63313;48.258;12.518;2023-07-20T19:27:52;9.91;;;2.11;;
74788;SDS011;63313;48.258;12.518;2023-07-20T19:33:19;3.0400000000000005;;;2.04;;
74788;SDS011;63313;48.258;12.518;2023-07-20T19:38:46;3.2700000000000005;;;2.09;;
74788;SDS011;63313;48.258;12.518;2023-07-20T19:44:13;4.08;;;1.9299999999999997;;
74788;SDS011;63313;48.258;12.518;2023-07-20T19:49:41;4.51;;;2.21;;
74788;SDS011;63313;48.258;12.518;2023-07-20T19:55:08;3.69;;;1.89;;
74788;SDS011;63313;48.258;12.518;2023-07-20T20:00:37;5.790000000000001;;;3.0200000000000005;;
74788;SDS011;63313;48.258;12.518;2023-07-20T20:06:04;4.17;;;3.0700000000000003;;
74788;SDS011;63313;48.258;12.518;2023-07-20T20:11:31;6.33;;;2.29;;
74788;SDS011;63313;48.258;12.518;2023-07-20T20:16:58;12.95;;;2.5;;
74788;SDS011;63313;48.258;12.518;2023-07-20T20:22:25;8.639999999999999;;;1.9200000000000004;;
74788;SDS011;63313;48.258;12.518;2023-07-20T20:27:53;7.970000000000001;;;1.8800000000000001;;
74788;SDS011;63313;48.258;12.518;2023-07-20T20:33:20;13.11;;;2.3;;
74788;SDS011;63313;48.258;12.518;2023-07-20T20:38:48;5.069999999999999;;;2.73;;
74788;SDS011;63313;48.258;12.518;2023-07-20T20:44:15;9.16;;;2.1799999999999997;;
74788;SDS011;63313;48.258;12.518;2023-07-20T20:49:42;5.529999999999999;;;2.2099999999999995;;
74788;SDS011;63313;48.258;12.518;2023-07-20T20:55:09;9.189999999999998;;;2.3899999999999997;;
74788;SDS011;63313;48.258;12.518;2023-07-20T21:00:37;11.05;;;2.17;;
74788;SDS011;63313;48.258;12.518;2023-07-20T21:06:04;8.459999999999999;;;2.04;;
74788;SDS011;63313;48.258;12.518;2023-07-20T21:11:31;13.830000000000002;;;2.7600000000000002;;
74788;SDS011;63313;48.258;12.518;2023-07-20T21:16:58;12.7;;;2.55;;
74788;SDS011;63313;48.258;12.518;2023-07-20T21:22:25;5.980000000000001;;;2.29;;
74788;SDS011;63313;48.258;12.518;2023-07-20T21:27:52;17.259999999999998;;;3.21;;
74788;SDS011;63313;48.258;12.518;2023-07-20T21:33:19;12.430000000000001;;;2.8;;
74788;SDS011;63313;48.258;12.518;2023-07-20T21:38:46;7.44;;;2.85;;
74788;SDS011;63313;48.258;12.518;2023-07-20T21:44:14;11.37;;;2.7299999999999995;;
74788;SDS011;63313;48.258;12.518;2023-07-20T21:49:41;6.7;;;2.4499999999999997;;
74788;SDS011;63313;48.258;12.518;2023-07-20T21:55:08;12.91;;;2.8299999999999996;;
74788;SDS011;63313;48.258;12.518;2023-07-20T22:00:35;11.930000000000001;;;2.93;;
74788;SDS011;63313;48.258;12.518;2023-07-20T22:06:02;9.98;;;3.0700000000000003;;
74788;SDS011;63313;48.258;12.518;2023-07-20T22:11:29;16.950000000000003;;;3.56;;
74788;SDS011;63313;48.258;12.518;2023-07-20T22:16:56;9.36;;;3.2099999999999995;;
74788;SDS011;63313;48.258;12.518;2023-07-20T22:22:24;8.98;;;3.4899999999999998;;
74788;SDS011;63313;48.258;12.518;2023-07-20T22:27:51;12.620000000000001;;;3.5400000000000005;;
74788;SDS011;63313;48.258;12.518;2023-07-20T22:33:18;14.570000000000002;;;3.4200000000000004;;
74788;SDS011;63313;48.258;12.518;2023-07-20T22:38:45;22.66;;;3.47;;
74788;SDS011;63313;48.258;12.518;2023-07-20T22:44:12;13.25;;;3.1699999999999995;;
74788;SDS011;63313;48.258;12.518;2023-07-20T22:49:39;16.71;;;3.45;;
74788;SDS011;63313;48.258;12.518;2023-07-20T22:55:06;12.11;;;2.95;;
74788;SDS011;63313;48.258;12.518;2023-07-20T23:00:34;13.319999999999999;;;3.71;;
74788;SDS011;63313;48.258;12.518;2023-07-20T23:06:01;15.05;;;4.029999999999999;;
74788;SDS011;63313;48.258;12.518;2023-07-20T23:11:28;16.3;;;4.35;;
74788;SDS011;63313;48.258;12.518;2023-07-20T23:16:55;15.569999999999999;;;3.8400000000000007;;
74788;SDS011;63313;48.258;12.518;2023-07-20T23:22:22;13.7;;;4.1499999999999995;;
74788;SDS011;63313;48.258;12.518;2023-07-20T23:27:49;16.02;;;4.79;;
74788;SDS011;63313;48.258;12.518;2023-07-20T23:33:17;18.19;;;3.87;;
74788;SDS011;63313;48.258;12.518;2023-07-20T23:38:44;19.220000000000002;;;3.8299999999999996;;
74788;SDS011;63313;48.258;12.518;2023-07-20T23:44:11;13.569999999999999;;;3.85;;
74788;SDS011;63313;48.258;12.518;2023-07-20T23:49:38;16.639999999999997;;;4.540000000000001;;
74788;SDS011;63313;48.258;12.518;2023-07-20T23:55:06;11.260000000000002;;;4.0600000000000005;;
